PILOTS ONLINE: 135    ATC ONLINE: 17

KRND

Randolph Air Force Base

Location

City Universal City
Country  United States
Latitude 29° 31' 46" N
Longitude 98° 16' 44" W
Elevation 761 ft
Type Large Airport

Map

Weather

METAR
2014/10/01 04:58
KRND 010458Z AUTO 15005KT 10SM CLR 24/21 A2981 RMK AO2 SLP086 T02370214
TAF
2014/09/30 17:07
TAF KRND 3017/0123 15009KT 9999 SCT030 QNH2975INS 
      BECMG 0104/0105 18006KT 9999 SCT020 QNH2980INS 
      BECMG 0105/0106 18006KT 8000 BR BKN015 QNH2981INS 
      BECMG 0108/0109 18006KT 4800 BR BKN009 QNH2981INS 
      BECMG 0114/0115 18006KT 8000 BR BKN015 QNH2983INS 
      BECMG 0115/0116 19010G15KT 9999 NSW SCT025 SCT040 QNH2975INS TX33/3021Z TN21/0112Z LAST NO 
      AMDS AFT 3023 NEXT 0109

Runways

14L/32R 8351 ft / 200 ft
14R/32L 8353 ft / 200 ft

Outbound flights

Callsign Flying to Pilot ATD/STD ETA Aircraft

Inbound flights

Callsign Flying from Pilot ATD ETA Aircraft